Time,TemperatureF,DewpointF,PressureIn,WindDirection,WindDirectionDegrees,WindSpeedMPH,WindSpeedGustMPH,Humidity,HourlyPrecipIn,Conditions,Clouds,dailyrainin,SoftwareType,DateUTC
2013-04-10 00:07:00,63.7,55.6,29.84,West,270,2.2,-999.0,75,-99.99,,,0.00,Acu-Link.com,2013-04-10 04:07:00,
2013-04-10 00:23:00,64.0,55.5,29.84,West,270,2.2,-999.0,74,-99.99,,,0.00,Acu-Link.com,2013-04-10 04:23:00,
2013-04-10 00:38:00,64.2,55.0,29.83,East,90,0.0,-999.0,72,-99.99,,,0.00,Acu-Link.com,2013-04-10 04:38:00,
2013-04-10 00:53:00,64.6,55.0,29.83,North,0,2.2,-999.0,71,-99.99,,,0.00,Acu-Link.com,2013-04-10 04:53:00,
2013-04-10 01:08:00,65.7,54.8,29.83,SE,135,2.2,-999.0,68,-99.99,,,0.00,Acu-Link.com,2013-04-10 05:08:00,
2013-04-10 01:24:00,66.7,55.0,29.83,SW,225,2.2,-999.0,66,-99.99,,,0.00,Acu-Link.com,2013-04-10 05:24:00,
2013-04-10 01:39:00,66.6,54.5,29.83,South,180,0.0,-999.0,65,-99.99,,,0.00,Acu-Link.com,2013-04-10 05:39:00,
2013-04-10 01:54:00,66.0,54.7,29.82,WSW,247,0.0,-999.0,67,-99.99,,,0.00,Acu-Link.com,2013-04-10 05:54:00,
2013-04-10 02:10:00,65.8,54.5,29.82,South,180,1.1,-999.0,67,-99.99,,,0.00,Acu-Link.com,2013-04-10 06:10:00,
2013-04-10 02:25:00,65.5,54.2,29.82,WNW,292,1.7,-999.0,67,-99.99,,,0.00,Acu-Link.com,2013-04-10 06:25:00,
2013-04-10 02:40:00,63.9,53.9,29.82,SSE,157,0.0,-999.0,70,-99.99,,,0.00,Acu-Link.com,2013-04-10 06:40:00,
2013-04-10 02:55:00,62.4,53.6,29.81,ESE,112,0.0,-999.0,73,-99.99,,,0.00,Acu-Link.com,2013-04-10 06:55:00,
2013-04-10 03:10:00,60.8,53.5,29.81,ESE,112,0.0,-999.0,77,-99.99,,,0.00,Acu-Link.com,2013-04-10 07:10:00,
2013-04-10 03:25:00,60.1,53.9,29.80,SSW,202,0.0,-999.0,80,-99.99,,,0.00,Acu-Link.com,2013-04-10 07:25:00,
2013-04-10 04:13:00,57.7,53.2,29.81,SSW,202,0.0,-999.0,85,-99.99,,,0.00,Acu-Link.com,2013-04-10 08:13:00,
2013-04-10 04:28:00,57.2,53.0,29.81,SSW,202,0.0,-999.0,86,-99.99,,,0.00,Acu-Link.com,2013-04-10 08:28:00,
2013-04-10 04:43:00,56.7,53.5,29.80,WSW,247,0.0,-999.0,89,-99.99,,,0.00,Acu-Link.com,2013-04-10 08:43:00,
2013-04-10 04:58:00,56.3,53.4,29.80,NNW,337,0.0,-999.0,90,-99.99,,,0.00,Acu-Link.com,2013-04-10 08:58:00,
2013-04-10 05:13:00,55.8,55.2,29.81,NNW,337,0.0,-999.0,98,-99.99,,,0.00,Acu-Link.com,2013-04-10 09:13:00,
2013-04-10 05:28:00,55.8,55.2,29.81,NE,45,1.7,-999.0,98,-99.99,,,0.00,Acu-Link.com,2013-04-10 09:28:00,
2013-04-10 05:44:00,55.2,54.6,29.81,ESE,112,0.0,-999.0,98,-99.99,,,0.00,Acu-Link.com,2013-04-10 09:44:00,
2013-04-10 05:59:00,54.5,53.9,29.81,ESE,112,0.0,-999.0,98,-99.99,,,0.00,Acu-Link.com,2013-04-10 09:59:00,
2013-04-10 06:14:00,54.1,53.5,29.81,ESE,112,0.0,-999.0,98,-99.99,,,0.00,Acu-Link.com,2013-04-10 10:14:00,
2013-04-10 06:29:00,53.6,53.0,29.80,ESE,112,0.0,-999.0,98,-99.99,,,0.00,Acu-Link.com,2013-04-10 10:29:00,
2013-04-10 06:45:00,53.4,52.8,29.80,NNW,337,0.0,-999.0,98,-99.99,,,0.00,Acu-Link.com,2013-04-10 10:45:00,
2013-04-10 07:00:00,53.1,52.5,29.82,SW,225,0.0,-999.0,98,-99.99,,,0.00,Acu-Link.com,2013-04-10 11:00:00,
2013-04-10 07:15:00,53.2,52.6,29.83,ESE,112,0.0,-999.0,98,-99.99,,,0.00,Acu-Link.com,2013-04-10 11:15:00,
2013-04-10 07:31:00,52.9,52.4,29.84,NNE,22,1.7,-999.0,98,-99.99,,,0.00,Acu-Link.com,2013-04-10 11:31:00,
2013-04-10 08:17:00,56.5,55.9,29.83,ESE,112,0.0,-999.0,98,-99.99,,,0.00,Acu-Link.com,2013-04-10 12:17:00,
2013-04-10 08:47:00,60.8,56.9,29.86,ESE,112,0.0,-999.0,87,-99.99,,,0.00,Acu-Link.com,2013-04-10 12:47:00,
2013-04-10 09:03:00,64.0,57.7,29.87,ESE,112,0.0,-999.0,80,-99.99,,,0.00,Acu-Link.com,2013-04-10 13:03:00,
2013-04-10 09:18:00,67.3,58.3,29.87,NNW,337,0.0,-999.0,73,-99.99,,,0.00,Acu-Link.com,2013-04-10 13:18:00,
2013-04-10 09:33:00,68.7,58.1,29.87,NW,315,0.0,-999.0,69,-99.99,,,0.00,Acu-Link.com,2013-04-10 13:33:00,
2013-04-10 09:48:00,71.2,58.8,29.88,West,270,2.2,-999.0,65,-99.99,,,0.00,Acu-Link.com,2013-04-10 13:48:00,
2013-04-10 10:04:00,72.9,59.1,29.86,WNW,292,1.7,-999.0,62,-99.99,,,0.00,Acu-Link.com,2013-04-10 14:04:00,
2013-04-10 10:19:00,74.8,59.5,29.86,WSW,247,1.7,-999.0,59,-99.99,,,0.00,Acu-Link.com,2013-04-10 14:19:00,
2013-04-10 10:34:00,75.9,59.6,29.87,SSW,202,3.7,-999.0,57,-99.99,,,0.00,Acu-Link.com,2013-04-10 14:34:00,
2013-04-10 10:49:00,76.6,58.7,29.86,NNW,337,2.2,-999.0,54,-99.99,,,0.00,Acu-Link.com,2013-04-10 14:49:00,
2013-04-10 11:04:00,78.1,59.6,29.87,South,180,6.8,-999.0,53,-99.99,,,0.00,Acu-Link.com,2013-04-10 15:04:00,
2013-04-10 11:20:00,78.1,60.1,29.87,WSW,247,2.7,-999.0,54,-99.99,,,0.00,Acu-Link.com,2013-04-10 15:20:00,
2013-04-10 11:35:00,80.2,59.9,29.87,East,90,2.7,-999.0,50,-99.99,,,0.00,Acu-Link.com,2013-04-10 15:35:00,
2013-04-10 11:50:00,79.5,59.8,29.85,WNW,292,3.7,-999.0,51,-99.99,,,0.00,Acu-Link.com,2013-04-10 15:50:00,
2013-04-10 12:05:00,82.0,59.8,29.85,SW,225,5.8,-999.0,47,-99.99,,,0.00,Acu-Link.com,2013-04-10 16:05:00,
2013-04-10 12:20:00,82.4,60.1,29.86,WSW,247,2.7,-999.0,47,-99.99,,,0.00,Acu-Link.com,2013-04-10 16:20:00,
2013-04-10 12:35:00,82.2,59.9,29.85,SW,225,3.7,-999.0,47,-99.99,,,0.00,Acu-Link.com,2013-04-10 16:35:00,
2013-04-10 12:50:00,85.3,59.6,29.84,SW,225,4.2,-999.0,42,-99.99,,,0.00,Acu-Link.com,2013-04-10 16:50:00,
2013-04-10 13:06:00,84.0,59.1,29.83,West,270,4.2,-999.0,43,-99.99,,,0.00,Acu-Link.com,2013-04-10 17:06:00,
2013-04-10 13:21:00,86.7,60.1,29.83,West,270,4.2,-999.0,41,-99.99,,,0.00,Acu-Link.com,2013-04-10 17:21:00,
2013-04-10 13:36:00,88.2,58.6,29.82,NW,315,5.3,-999.0,37,-99.99,,,0.00,Acu-Link.com,2013-04-10 17:36:00,
2013-04-10 14:06:00,90.1,58.7,29.80,West,270,2.7,-999.0,35,-99.99,,,0.00,Acu-Link.com,2013-04-10 18:06:00,
2013-04-10 14:22:00,89.2,60.2,29.80,NW,315,1.7,-999.0,38,-99.99,,,0.00,Acu-Link.com,2013-04-10 18:22:00,
2013-04-10 14:37:00,90.0,57.8,29.79,SSE,157,3.2,-999.0,34,-99.99,,,0.00,Acu-Link.com,2013-04-10 18:37:00,
2013-04-10 14:52:00,90.0,57.0,29.78,South,180,3.2,-999.0,33,-99.99,,,0.00,Acu-Link.com,2013-04-10 18:52:00,
2013-04-10 15:07:00,91.0,57.9,29.77,WNW,292,2.2,-999.0,33,-99.99,,,0.00,Acu-Link.com,2013-04-10 19:07:00,
2013-04-10 15:23:00,92.8,55.8,29.77,West,270,3.7,-999.0,29,-99.99,,,0.00,Acu-Link.com,2013-04-10 19:23:00,
2013-04-10 15:38:00,91.8,56.8,29.75,North,0,3.7,-999.0,31,-99.99,,,0.00,Acu-Link.com,2013-04-10 19:38:00,
2013-04-10 15:53:00,92.7,56.7,29.75,West,270,2.2,-999.0,30,-99.99,,,0.00,Acu-Link.com,2013-04-10 19:53:00,
2013-04-10 16:08:00,91.2,56.3,29.75,NNW,337,2.7,-999.0,31,-99.99,,,0.00,Acu-Link.com,2013-04-10 20:08:00,
2013-04-10 16:23:00,91.4,57.3,29.72,SSW,202,5.3,-999.0,32,-99.99,,,0.00,Acu-Link.com,2013-04-10 20:23:00,
2013-04-10 16:38:00,93.9,54.8,29.72,West,270,2.2,-999.0,27,-99.99,,,0.00,Acu-Link.com,2013-04-10 20:38:00,
2013-04-10 16:53:00,90.7,55.9,29.71,South,180,1.1,-999.0,31,-99.99,,,0.00,Acu-Link.com,2013-04-10 20:53:00,
2013-04-10 17:09:00,87.6,55.7,29.71,SSW,202,4.2,-999.0,34,-99.99,,,0.00,Acu-Link.com,2013-04-10 21:09:00,
2013-04-10 17:24:00,90.7,55.9,29.70,South,180,3.2,-999.0,31,-99.99,,,0.00,Acu-Link.com,2013-04-10 21:24:00,
2013-04-10 17:39:00,91.6,54.8,29.69,WSW,247,3.2,-999.0,29,-99.99,,,0.00,Acu-Link.com,2013-04-10 21:39:00,
2013-04-10 17:54:00,88.2,56.3,29.69,South,180,1.1,-999.0,34,-99.99,,,0.00,Acu-Link.com,2013-04-10 21:54:00,
2013-04-10 18:09:00,90.0,57.0,29.68,WSW,247,2.2,-999.0,33,-99.99,,,0.00,Acu-Link.com,2013-04-10 22:09:00,
2013-04-10 18:24:00,88.2,55.4,29.67,WSW,247,4.7,-999.0,33,-99.99,,,0.00,Acu-Link.com,2013-04-10 22:24:00,
2013-04-10 18:40:00,85.8,56.5,29.66,SW,225,2.2,-999.0,37,-99.99,,,0.00,Acu-Link.com,2013-04-10 22:40:00,
2013-04-10 18:55:00,85.8,56.5,29.66,SW,225,1.7,-999.0,37,-99.99,,,0.00,Acu-Link.com,2013-04-10 22:55:00,
2013-04-10 19:10:00,85.3,56.0,29.65,SW,225,3.7,-999.0,37,-99.99,,,0.00,Acu-Link.com,2013-04-10 23:10:00,
2013-04-10 19:26:00,84.4,56.0,29.64,West,270,2.2,-999.0,38,-99.99,,,0.00,Acu-Link.com,2013-04-10 23:26:00,
2013-04-10 19:41:00,81.7,56.3,29.65,West,270,0.0,-999.0,42,-99.99,,,0.00,Acu-Link.com,2013-04-10 23:41:00,
2013-04-10 19:56:00,80.1,56.8,29.64,West,270,1.1,-999.0,45,-99.99,,,0.00,Acu-Link.com,2013-04-10 23:56:00,
2013-04-10 20:27:00,76.5,57.0,29.64,SSE,157,0.0,-999.0,51,-99.99,,,0.00,Acu-Link.com,2013-04-11 00:27:00,
2013-04-10 20:42:00,75.0,57.7,29.64,South,180,0.0,-999.0,55,-99.99,,,0.00,Acu-Link.com,2013-04-11 00:42:00,
2013-04-10 20:58:00,73.6,57.9,29.64,West,270,0.0,-999.0,58,-99.99,,,0.00,Acu-Link.com,2013-04-11 00:58:00,
2013-04-10 21:13:00,72.3,58.1,29.63,South,180,0.0,-999.0,61,-99.99,,,0.00,Acu-Link.com,2013-04-11 01:13:00,
2013-04-10 21:28:00,71.1,58.7,29.63,South,180,0.0,-999.0,65,-99.99,,,0.00,Acu-Link.com,2013-04-11 01:28:00,
2013-04-10 21:44:00,70.2,58.3,29.63,South,180,0.0,-999.0,66,-99.99,,,0.00,Acu-Link.com,2013-04-11 01:44:00,
2013-04-10 21:59:00,68.9,58.3,29.63,West,270,0.0,-999.0,69,-99.99,,,0.00,Acu-Link.com,2013-04-11 01:59:00,
2013-04-10 22:14:00,68.0,58.6,29.63,SE,135,0.0,-999.0,72,-99.99,,,0.00,Acu-Link.com,2013-04-11 02:14:00,
2013-04-10 22:30:00,67.3,58.7,29.63,NNE,22,0.0,-999.0,74,-99.99,,,0.00,Acu-Link.com,2013-04-11 02:30:00,
2013-04-10 22:45:00,66.2,58.4,29.63,SSE,157,0.0,-999.0,76,-99.99,,,0.00,Acu-Link.com,2013-04-11 02:45:00,
2013-04-10 23:00:00,65.5,58.5,29.64,West,270,0.0,-999.0,78,-99.99,,,0.00,Acu-Link.com,2013-04-11 03:00:00,
2013-04-10 23:16:00,65.1,58.1,29.65,SSW,202,1.1,-999.0,78,-99.99,,,0.00,Acu-Link.com,2013-04-11 03:16:00,
2013-04-10 23:46:00,66.4,58.2,29.65,West,270,2.2,-999.0,75,-99.99,,,0.00,Acu-Link.com,2013-04-11 03:46:00,